Flight Track Log - Related Links

Times and Time Zones

All times are in EDT time to prevent confusion due to time zone crossing. See the AWE1092 flight status page for this flight to view local times or setup timezone preferences in your user account.

Time Position Orientation Groundspeed Altitude Reporting Facility
EDT Latitude Longitude Course Direction KTS MPH feet Rate Location/Type
Wed 09:46:14 AM 39.8533 -75.2767 216° Southwest 130 150 1,300  Level FAA TRACON SMA TRACON (SMA)
Wed 09:46:33 AM 39.8425 -75.2869 216° Southwest 164 189 1,900 1,650 Climbing FAA TRACON SMA TRACON (SMA)
Wed 09:46:54 AM 39.8297 -75.2992 216° Southwest 186 214 2,400 2,195 Climbing FAA TRACON SMA TRACON (SMA)
Wed 09:47:14 AM 39.8164 -75.3117 216° Southwest 190 219 3,400 2,400 Climbing FAA TRACON SMA TRACON (SMA)
Wed 09:47:34 AM 39.7967 -75.3272 211° Southwest 232 267 4,000 2,250 Climbing FAA TRACON SMA TRACON (SMA)
Wed 09:47:54 AM 39.7786 -75.3425 213° Southwest 251 289 4,900 3,600 Climbing FAA TRACON SMA TRACON (SMA)
Wed 09:48:14 AM 39.7556 -75.3617 213° Southwest 256 295 6,400 3,900 Climbing FAA TRACON SMA TRACON (SMA)
Wed 09:48:34 AM 39.7372 -75.3778 214° Southwest 259 298 7,500 3,450 Climbing FAA TRACON SMA TRACON (SMA)
Wed 09:48:54 AM 39.7158 -75.3900 204° Southwest 275 316 8,700 3,300 Climbing FAA TRACON SMA TRACON (SMA)
Wed 09:49:14 AM 39.6925 -75.3867 174° South 281 323 9,700 3,000 Climbing FAA TRACON SMA TRACON (SMA)
Wed 09:49:34 AM 39.6622 -75.3767 166° South 298 343 10,700 1,800 Climbing FAA TRACON SMA TRACON (SMA)
Wed 09:49:54 AM 39.6358 -75.3683 166° South 321 369 10,900 1,350 Climbing FAA TRACON SMA TRACON (SMA)
Wed 09:50:14 AM 39.5994 -75.3564 166° South 357 411 11,600 2,615 Climbing FAA TRACON SMA TRACON (SMA)
Wed 09:50:33 AM 39.5694 -75.3478 168° South 358 412 12,600 2,615 Climbing FAA TRACON SMA TRACON (SMA)
Wed 09:50:53 AM 39.5428 -75.3375 163° South 361 415 13,300 2,195 Climbing FAA TRACON SMA TRACON (SMA)
Wed 09:51:14 AM 39.5078 -75.3311 172° South 373 429 14,100 2,780 Climbing FAA TRACON SMA TRACON (SMA)
Wed 09:51:34 AM 39.4683 -75.3328 182° South 369 425 15,200 2,550 Climbing FAA TRACON SMA TRACON (SMA)
Wed 09:51:54 AM 39.4400 -75.3383 189° South 373 429 15,800 2,308 Climbing FAA TRACON SMA TRACON (SMA)
Wed 09:52:13 AM 39.4044 -75.3458 189° South 378 435 16,700 1,846 Climbing FAA TRACON SMA TRACON (SMA)
Wed 09:52:33 AM 39.3633 -75.3531 188° South 384 442 17,000 439 Climbing FAA TRACON SMA TRACON (SMA)
Wed 09:52:54 AM 39.3300 -75.3592 188° South 389 448 17,000 -146 Level FAA TRACON SMA TRACON (SMA)
Wed 09:53:14 AM 39.2911 -75.3661 188° South 387 445 16,900 -150 Descending FAA TRACON SMA TRACON (SMA)
Wed 09:53:34 AM 39.2572 -75.3719 188° South 383 441 16,900 150 Level FAA TRACON SMA TRACON (SMA)
Wed 09:53:54 AM 39.2406 -75.3750 188° South 383 441 17,000 923 Climbing FAA TRACON SMA TRACON (SMA)
Wed 09:55:44 AM 39.0444 -75.4072 187° South 386 444 18,900 1,412 Climbing Washington Center
Wed 09:56:44 AM 38.9381 -75.4236 187° South 386 444 21,000 2,150 Climbing Washington Center
Wed 09:57:44 AM 38.8278 -75.4425 188° South 396 456 23,200 2,050 Climbing Washington Center
Wed 09:58:44 AM 38.7111 -75.4561 185° South 409 471 25,100 1,400 Climbing Washington Center
Wed 09:59:44 AM 38.5922 -75.4722 186° South 421 484 26,000 450 Climbing Washington Center
Wed 10:00:44 AM 38.4756 -75.4908 187° South 427 491 26,000  Level Washington Center
Wed 10:01:44 AM 38.3586 -75.5122 188° South 427 491 26,000  Level Washington Center
Wed 10:02:44 AM 38.2397 -75.5839 205° Southwest 417 480 26,000  Level Washington Center
Wed 10:03:44 AM 38.1481 -75.6708 217° Southwest 417 480 26,000  Level Washington Center
Wed 10:04:44 AM 38.0561 -75.7606 218° Southwest 417 480 26,000  Level Washington Center
Wed 10:05:44 AM 37.9622 -75.8472 216° Southwest 422 486 26,000  Level Washington Center
Wed 10:06:44 AM 37.8703 -75.9336 217° Southwest 422 486 26,000  Level Washington Center
Wed 10:07:44 AM 37.7742 -76.0200 215° Southwest 422 486 26,000  Level Washington Center
Wed 10:08:44 AM 37.6967 -76.1036 220° Southwest 422 486 26,000 -150 Level Washington Center
Wed 10:09:44 AM 37.5897 -76.1947 214° Southwest 422 486 25,700 -400 Descending Washington Center
Wed 10:10:44 AM 37.4997 -76.2778 216° Southwest 417 480 25,200 -450 Descending Washington Center
Wed 10:11:44 AM 37.4075 -76.3606 215° Southwest 411 473 24,800 -450 Descending Washington Center
Wed 10:12:44 AM 37.3150 -76.4458 216° Southwest 411 473 24,300 -400 Descending Washington Center
Wed 10:13:44 AM 37.2308 -76.5386 221° Southwest 411 473 24,000 -200 Descending Washington Center
Wed 10:14:44 AM 37.1633 -76.6472 232° Southwest 406 467 23,900 -850 Descending Washington Center
Wed 10:15:44 AM 37.0956 -76.7531 231° Southwest 401 461 22,300 -1,600 Descending Washington Center
Wed 10:16:44 AM 37.0278 -76.8561 231° Southwest 396 456 20,700 -1,150 Descending Washington Center
Wed 10:17:44 AM 36.9661 -76.9542 232° Southwest 385 443 20,000 -350 Descending Washington Center
Wed 10:18:44 AM 36.9003 -77.0542 231° Southwest 385 443 20,000 -1,000 Level Washington Center
Wed 10:19:44 AM 36.8344 -77.1542 231° Southwest 385 443 18,000 -1,500 Descending Washington Center
Wed 10:20:44 AM 36.7747 -77.2489 232° Southwest 372 428 17,000 -750 Descending Washington Center
Wed 10:21:44 AM 36.7128 -77.3433 231° Southwest 362 417 16,500 -700 Descending Washington Center
Wed 10:22:44 AM 36.6467 -77.4403 230° Southwest 362 417 15,600 -850 Descending Washington Center
Wed 10:23:44 AM 36.5869 -77.5347 232° Southwest 362 417 14,800 -800 Descending Washington Center
Wed 10:24:44 AM 36.5289 -77.6314 233° Southwest 362 417 14,000 -800 Descending Washington Center
Wed 10:25:44 AM 36.4669 -77.7203 229° Southwest 357 411 13,200 -800 Descending Washington Center
Wed 10:26:44 AM 36.4108 -77.8089 232° Southwest 352 405 12,400 -743 Descending Washington Center
Wed 10:27:37 AM 36.3572 -77.8875 230° Southwest 330 380 11,800 -722 Descending Washington Center
Wed 10:28:32 AM 36.3058 -77.9658 231° Southwest 325 374 11,100 -756 Descending Washington Center
Wed 10:29:44 AM 36.2347 -78.0667 229° Southwest 341 392 10,200 -500 Descending Washington Center
Wed 10:30:44 AM 36.1917 -78.1375 233° Southwest 316 364 10,000 -261 Descending Washington Center
Wed 10:31:39 AM 36.1461 -78.2183 235° Southwest 268 308 9,700 -879 Descending Washington Center
Wed 10:32:40 AM 36.1086 -78.3017 241° Southwest 271 312 8,300 -1,392 Descending Washington Center
Wed 10:33:44 AM 36.0756 -78.3881 245° Southwest 265 305 6,800 -1,488 Descending Washington Center
Wed 10:34:41 AM 36.0425 -78.4589 240° Southwest 258 297 5,300 -1,627 Descending Washington Center
Wed 10:35:42 AM 36.0094 -78.5347 242° Southwest 248 285 3,600 -1,140 Descending Washington Center
Wed 10:36:42 AM 35.9761 -78.6078 241° Southwest 228 262 3,000 -520 Descending Washington Center
Wed 10:37:49 AM 35.9519 -78.6633 242° Southwest 156 180 2,500 -448 Descending Washington Center

Login

Don't have an account? Register now (free) for customized features, flight alerts, and more!